createdAt,value
2023-01-13T00:00:17.835Z,99961.56
2023-01-13T00:02:45.486Z,99964.25
2023-01-13T00:05:13.005Z,99963.72
2023-01-13T00:07:40.737Z,99968.00
2023-01-13T00:10:09.984Z,99961.84
2023-01-13T00:12:41.697Z,99968.16
2023-01-13T00:15:11.137Z,99976.56
2023-01-13T00:17:39.159Z,99974.66
2023-01-13T00:20:08.107Z,99974.69
2023-01-13T00:22:35.948Z,99969.22
2023-01-13T00:25:04.403Z,99971.75
2023-01-13T00:27:32.151Z,99964.41
2023-01-13T00:30:01.066Z,99971.59
2023-01-13T00:32:29.164Z,99967.97
2023-01-13T00:34:56.881Z,99967.97
2023-01-13T00:37:24.388Z,99952.34
2023-01-13T00:39:52.138Z,99963.66
2023-01-13T00:42:51.974Z,99961.94
2023-01-13T00:45:20.891Z,99955.91
2023-01-13T00:47:50.804Z,99960.19
2023-01-13T00:50:18.509Z,99966.22
2023-01-13T00:52:46.163Z,99960.81
2023-01-13T00:55:13.684Z,99960.69
2023-01-13T00:57:41.219Z,99965.88
2023-01-13T01:00:10.054Z,99959.72
2023-01-13T01:02:39.031Z,99966.22
2023-01-13T01:05:07.467Z,99961.72
2023-01-13T01:07:34.959Z,99965.84
2023-01-13T01:10:02.474Z,99963.22
2023-01-13T01:12:29.980Z,99964.91
2023-01-13T01:14:57.573Z,99966.63
2023-01-13T01:17:25.105Z,99971.13
2023-01-13T01:19:53.933Z,99958.00
2023-01-13T01:22:21.455Z,99961.41
2023-01-13T01:24:51.086Z,99970.03
2023-01-13T01:27:18.633Z,99962.56
2023-01-13T01:29:50.856Z,99964.25
2023-01-13T01:32:18.475Z,99963.34
2023-01-13T01:34:46.048Z,99969.22
2023-01-13T01:37:15.001Z,99966.06
2023-01-13T01:39:42.541Z,99964.28
2023-01-13T01:42:33.696Z,99954.97
2023-01-13T01:45:05.307Z,99966.28
2023-01-13T01:47:33.488Z,99955.75
2023-01-13T01:50:03.429Z,99959.88
2023-01-13T01:52:36.126Z,99955.69
2023-01-13T01:55:08.920Z,99953.13
2023-01-13T01:57:43.196Z,99953.75
2023-01-13T02:00:12.118Z,99956.78
2023-01-13T02:02:40.907Z,99942.84
2023-01-13T02:05:09.352Z,99940.59
2023-01-13T02:07:40.921Z,99948.41
2023-01-13T02:10:12.617Z,99946.84
2023-01-13T02:12:41.495Z,99938.03
2023-01-13T02:15:12.729Z,99938.13
2023-01-13T02:18:10.965Z,99940.00
2023-01-13T02:21:08.906Z,99938.69
2023-01-13T02:24:21.510Z,99930.88
2023-01-13T02:27:26.247Z,99928.25
2023-01-13T02:30:21.704Z,99923.09
2023-01-13T02:33:02.196Z,99933.41
2023-01-13T02:35:38.392Z,99929.84
2023-01-13T02:38:07.021Z,99928.19
2023-01-13T02:40:39.014Z,99929.19
2023-01-13T02:43:30.865Z,99932.56
2023-01-13T02:46:04.376Z,99913.75
2023-01-13T02:48:33.164Z,99919.75
2023-01-13T02:51:05.903Z,99918.78
2023-01-13T02:53:37.053Z,99917.69
2023-01-13T02:56:06.415Z,99913.78
2023-01-13T02:58:37.195Z,99923.13
2023-01-13T03:01:06.524Z,99918.09
2023-01-13T03:03:34.018Z,99909.22
2023-01-13T03:06:12.030Z,99909.44
2023-01-13T03:08:47.749Z,99914.41
2023-01-13T03:11:17.013Z,99911.06
2023-01-13T03:14:08.819Z,99900.56
2023-01-13T03:16:51.527Z,99895.38
2023-01-13T03:19:30.104Z,99890.91
2023-01-13T03:22:02.506Z,99893.94
2023-01-13T03:24:36.763Z,99893.69
2023-01-13T03:27:11.613Z,99889.38
2023-01-13T03:29:45.514Z,99900.53
2023-01-13T03:32:19.064Z,99897.84
2023-01-13T03:34:51.116Z,99893.66
2023-01-13T03:37:23.171Z,99896.13
2023-01-13T03:39:56.375Z,99897.16
2023-01-13T03:42:25.925Z,99894.75
2023-01-13T03:44:57.666Z,99892.09
2023-01-13T03:47:30.685Z,99903.97
2023-01-13T03:50:03.503Z,99898.69
2023-01-13T03:52:35.887Z,99893.50
2023-01-13T03:55:07.906Z,99895.84
2023-01-13T03:57:39.403Z,99902.81
2023-01-13T04:00:10.677Z,99898.44
2023-01-13T04:02:50.234Z,99894.88
2023-01-13T04:05:18.809Z,99892.31
2023-01-13T04:07:52.000Z,99894.41
2023-01-13T04:10:24.424Z,99882.09
2023-01-13T04:13:04.427Z,99893.56
2023-01-13T04:15:35.746Z,99888.88
2023-01-13T04:18:12.358Z,99885.13
2023-01-13T04:20:40.742Z,99893.69
2023-01-13T04:23:09.042Z,99893.38
2023-01-13T04:25:37.295Z,99898.06
2023-01-13T04:28:05.090Z,99897.69
2023-01-13T04:30:32.580Z,99894.50
2023-01-13T04:33:00.004Z,99893.84
2023-01-13T04:35:28.749Z,99900.69
2023-01-13T04:37:56.167Z,99898.03
2023-01-13T04:40:24.158Z,99903.34
2023-01-13T04:42:51.549Z,99899.94
2023-01-13T04:45:18.977Z,99894.59
2023-01-13T04:47:46.589Z,99899.69
2023-01-13T04:50:14.056Z,99904.13
2023-01-13T04:52:42.823Z,99914.56
2023-01-13T04:55:11.343Z,99909.50
2023-01-13T04:57:38.770Z,99907.81
2023-01-13T05:00:07.889Z,99906.06
2023-01-13T05:02:35.325Z,99908.41
2023-01-13T05:05:02.863Z,99917.19
2023-01-13T05:07:30.349Z,99925.84
2023-01-13T05:09:59.304Z,99914.31
2023-01-13T05:12:44.416Z,99934.31
2023-01-13T05:15:30.772Z,99940.28
2023-01-13T05:17:58.461Z,99941.09
2023-01-13T05:20:26.260Z,99947.69
2023-01-13T05:23:11.215Z,99938.25
2023-01-13T05:25:44.387Z,99934.78
2023-01-13T05:28:12.639Z,99939.72
2023-01-13T05:30:43.242Z,99940.50
2023-01-13T05:33:11.055Z,99946.47
2023-01-13T05:35:39.563Z,99953.66
2023-01-13T05:38:06.982Z,99956.06
2023-01-13T05:40:52.548Z,99955.91
2023-01-13T05:43:24.483Z,99958.78
2023-01-13T05:45:54.708Z,99962.13
2023-01-13T05:48:23.948Z,99962.56
2023-01-13T05:50:51.640Z,99966.47
2023-01-13T05:53:19.227Z,99959.50
2023-01-13T05:55:47.068Z,99982.97
2023-01-13T05:58:16.406Z,99976.91
2023-01-13T06:00:45.220Z,99974.28
2023-01-13T06:03:13.731Z,99975.06
2023-01-13T06:05:41.431Z,99968.22
2023-01-13T06:08:09.730Z,99963.06
2023-01-13T06:10:37.662Z,99961.31
2023-01-13T06:13:05.961Z,99957.00
2023-01-13T06:15:33.417Z,99956.06
2023-01-13T06:18:04.691Z,99962.22
2023-01-13T06:20:32.601Z,99968.34
2023-01-13T06:23:00.584Z,99971.97
2023-01-13T06:25:39.180Z,99974.31
2023-01-13T06:28:06.623Z,99969.09
2023-01-13T06:30:40.708Z,99966.47
2023-01-13T06:33:14.502Z,99961.41
2023-01-13T06:35:45.494Z,99965.34
2023-01-13T06:38:18.396Z,99969.41
2023-01-13T06:40:46.269Z,99962.41
2023-01-13T06:43:16.621Z,99956.94
2023-01-13T06:45:47.903Z,99961.31
2023-01-13T06:48:17.589Z,99945.38
2023-01-13T06:50:45.653Z,99938.44
2023-01-13T06:53:13.118Z,99921.28
2023-01-13T06:55:40.639Z,99930.41
2023-01-13T06:58:08.104Z,99937.38
2023-01-13T07:00:37.396Z,99946.88
2023-01-13T07:03:09.875Z,99947.53
2023-01-13T07:05:39.090Z,99953.53
2023-01-13T07:08:07.515Z,99957.94
2023-01-13T07:10:35.357Z,99952.13
2023-01-13T07:13:22.263Z,99957.66
2023-01-13T07:15:57.584Z,99953.09
2023-01-13T07:18:27.305Z,99938.34
2023-01-13T07:20:58.475Z,99933.72
2023-01-13T07:23:26.606Z,99922.63
2023-01-13T07:25:56.383Z,99918.22
2023-01-13T07:28:23.806Z,99919.88
2023-01-13T07:30:51.584Z,99953.47
2023-01-13T07:33:19.011Z,99960.41
2023-01-13T07:35:46.891Z,99938.66
2023-01-13T07:38:16.134Z,99940.00
2023-01-13T07:40:43.563Z,99962.03
2023-01-13T07:43:30.917Z,99942.34
2023-01-13T07:45:59.358Z,99958.81
2023-01-13T07:48:27.215Z,99953.56
2023-01-13T07:50:55.125Z,99969.91
2023-01-13T07:53:25.915Z,99968.94
2023-01-13T07:55:56.222Z,99970.94
2023-01-13T07:58:23.856Z,99965.50
2023-01-13T08:00:51.383Z,99972.41
2023-01-13T08:03:18.964Z,99963.94
2023-01-13T08:05:47.145Z,99960.53
2023-01-13T08:08:14.566Z,99987.84
2023-01-13T08:10:43.301Z,100004.56
2023-01-13T08:13:21.111Z,100001.66
2023-01-13T08:15:50.494Z,99995.41
2023-01-13T08:18:20.792Z,99999.56
2023-01-13T08:20:48.562Z,100010.75
2023-01-13T08:23:16.509Z,100015.09
2023-01-13T08:25:45.509Z,100023.84
2023-01-13T08:28:13.294Z,100009.34
2023-01-13T08:30:40.923Z,100008.59
2023-01-13T08:33:10.379Z,99997.28
2023-01-13T08:35:38.428Z,100004.06
2023-01-13T08:38:06.695Z,100011.06
2023-01-13T08:40:34.360Z,100009.22
2023-01-13T08:43:03.269Z,100018.84
2023-01-13T08:45:30.780Z,100006.94
2023-01-13T08:47:58.571Z,99987.94
2023-01-13T08:50:26.015Z,100009.59
2023-01-13T08:52:53.449Z,100028.53
2023-01-13T08:55:21.126Z,100032.81
2023-01-13T08:57:48.596Z,100037.81
2023-01-13T09:00:18.211Z,100037.03
2023-01-13T09:02:45.657Z,100045.19
2023-01-13T09:05:14.675Z,100022.66
2023-01-13T09:07:43.583Z,99987.41
2023-01-13T09:10:11.706Z,99979.81
2023-01-13T09:12:56.794Z,99988.22
2023-01-13T09:15:25.575Z,99883.78
2023-01-13T09:17:53.090Z,99916.97
2023-01-13T09:20:20.625Z,100006.94
2023-01-13T09:22:48.077Z,100015.00
2023-01-13T09:25:15.589Z,100005.00
2023-01-13T09:27:42.977Z,100002.34
2023-01-13T09:30:11.802Z,100012.50
2023-01-13T09:32:40.530Z,100003.53
2023-01-13T09:35:08.251Z,99998.78
2023-01-13T09:37:39.071Z,99991.34
2023-01-13T09:40:08.517Z,100003.09
2023-01-13T09:43:03.569Z,99997.63
2023-01-13T09:45:35.756Z,99975.63
2023-01-13T09:48:10.981Z,99977.88
2023-01-13T09:50:50.031Z,99993.75
2023-01-13T09:53:22.352Z,99998.00
2023-01-13T09:55:49.926Z,100024.28
2023-01-13T09:58:19.338Z,100024.16
2023-01-13T10:00:56.881Z,100016.09
2023-01-13T10:03:28.447Z,100008.59
2023-01-13T10:06:04.544Z,100014.03
2023-01-13T10:08:35.087Z,100026.63
2023-01-13T10:11:24.868Z,100032.59
2023-01-13T10:13:57.899Z,100033.28
2023-01-13T10:16:31.908Z,100038.13
2023-01-13T10:19:06.529Z,100038.28
2023-01-13T10:22:00.991Z,100036.47
2023-01-13T10:24:39.346Z,100028.69
2023-01-13T10:27:13.492Z,100029.63
2023-01-13T10:29:40.991Z,100020.81
2023-01-13T10:32:08.668Z,100017.75
2023-01-13T10:34:46.148Z,100024.38
2023-01-13T10:37:22.270Z,100022.72
2023-01-13T10:39:49.998Z,100026.19
2023-01-13T10:42:21.939Z,100022.75
2023-01-13T10:44:51.687Z,100018.22
2023-01-13T10:47:25.682Z,100019.81
2023-01-13T10:50:22.359Z,100026.13
2023-01-13T10:52:59.302Z,100019.06
2023-01-13T10:55:30.157Z,100028.13
2023-01-13T10:57:57.763Z,100020.03
2023-01-13T11:00:30.577Z,100023.69
2023-01-13T11:03:16.297Z,100016.66
2023-01-13T11:05:52.223Z,100023.50
2023-01-13T11:08:22.441Z,100018.47
2023-01-13T11:10:52.464Z,100021.53
2023-01-13T11:13:26.166Z,100029.53
2023-01-13T11:15:58.666Z,100021.50
2023-01-13T11:18:36.197Z,100033.97
2023-01-13T11:21:10.296Z,100027.91
2023-01-13T11:23:43.215Z,100018.94
2023-01-13T11:26:17.164Z,100028.56
2023-01-13T11:28:54.244Z,100029.38
2023-01-13T11:31:26.108Z,100032.78
2023-01-13T11:33:59.311Z,100026.91
2023-01-13T11:36:34.594Z,100034.00
2023-01-13T11:39:10.982Z,100032.28
2023-01-13T11:41:43.959Z,100030.31
2023-01-13T11:44:20.255Z,100022.44
2023-01-13T11:46:50.114Z,100020.91
2023-01-13T11:49:24.660Z,100024.09
2023-01-13T11:52:00.665Z,100023.56
2023-01-13T11:54:54.026Z,100022.78
2023-01-13T11:57:50.574Z,100033.09
2023-01-13T12:00:33.537Z,100029.81
2023-01-13T12:03:21.248Z,100039.19
2023-01-13T12:06:03.218Z,100036.88
2023-01-13T12:08:52.925Z,100022.91
2023-01-13T12:11:28.730Z,100035.03
2023-01-13T12:14:11.419Z,100042.84
2023-01-13T12:16:46.910Z,100027.31
2023-01-13T12:19:27.995Z,100027.44
2023-01-13T12:22:08.614Z,100035.72
2023-01-13T12:24:44.287Z,100028.16
2023-01-13T12:27:18.811Z,100030.78
2023-01-13T12:29:47.867Z,100047.97
2023-01-13T12:32:20.894Z,100042.81
2023-01-13T12:34:58.551Z,100042.00
2023-01-13T12:37:33.499Z,100046.22
2023-01-13T12:40:20.458Z,100030.00
2023-01-13T12:43:11.770Z,100032.41
2023-01-13T12:45:39.244Z,100042.72
2023-01-13T12:48:07.291Z,100049.63
2023-01-13T12:50:41.375Z,100047.06
2023-01-13T12:53:31.941Z,100047.16
2023-01-13T12:56:26.101Z,100053.06
2023-01-13T12:58:53.618Z,100052.16
2023-01-13T13:01:36.017Z,100058.22
2023-01-13T13:04:09.315Z,100042.78
2023-01-13T13:06:38.245Z,100058.31
2023-01-13T13:09:17.507Z,100051.50
2023-01-13T13:12:05.911Z,100059.13
2023-01-13T13:15:03.866Z,100059.16
2023-01-13T13:17:45.525Z,100048.50
2023-01-13T13:20:53.787Z,100058.03
2023-01-13T13:23:29.890Z,100067.22
2023-01-13T13:26:04.665Z,100067.66
2023-01-13T13:28:39.112Z,100060.47
2023-01-13T13:31:20.536Z,100058.13
2023-01-13T13:34:13.945Z,100057.78
2023-01-13T13:36:55.585Z,100065.84
2023-01-13T13:39:43.182Z,100062.16
2023-01-13T13:42:31.976Z,100068.22
2023-01-13T13:45:20.899Z,100071.03
2023-01-13T13:47:48.450Z,100093.44
2023-01-13T13:50:20.442Z,100091.69
2023-01-13T13:52:54.925Z,100078.88
2023-01-13T13:55:25.414Z,100083.81
2023-01-13T13:57:54.178Z,100070.88
2023-01-13T14:00:26.124Z,100083.09
2023-01-13T14:02:55.941Z,100079.44
2023-01-13T14:05:25.586Z,100082.91
2023-01-13T14:08:00.250Z,100087.28
2023-01-13T14:10:34.948Z,100093.31
2023-01-13T14:13:03.968Z,100086.31
2023-01-13T14:15:39.761Z,100089.06
2023-01-13T14:18:13.366Z,100101.03
2023-01-13T14:20:40.997Z,100084.75
2023-01-13T14:23:17.181Z,100094.91
2023-01-13T14:25:48.515Z,100100.22
2023-01-13T14:28:23.624Z,100101.78
2023-01-13T14:30:53.252Z,100099.88
2023-01-13T14:33:25.121Z,100100.84
2023-01-13T14:36:14.888Z,100109.00
2023-01-13T14:38:43.705Z,100107.19
2023-01-13T14:41:21.215Z,100092.59
2023-01-13T14:43:50.782Z,100084.94
2023-01-13T14:46:22.339Z,100088.28
2023-01-13T14:48:52.865Z,100097.66
2023-01-13T14:51:26.601Z,100101.31
2023-01-13T14:53:54.440Z,100102.00
2023-01-13T14:56:39.065Z,100096.59
2023-01-13T14:59:55.328Z,100096.69
2023-01-13T15:02:38.725Z,100105.47
2023-01-13T15:05:33.138Z,100114.88
2023-01-13T15:08:04.585Z,100105.34
2023-01-13T15:10:33.746Z,100110.63
2023-01-13T15:13:03.579Z,100109.78
2023-01-13T15:15:33.849Z,100109.84
2023-01-13T15:18:06.549Z,100125.34
2023-01-13T15:20:34.020Z,100110.69
2023-01-13T15:23:01.542Z,100121.88
2023-01-13T15:25:33.045Z,100133.81
2023-01-13T15:28:00.590Z,100130.31
2023-01-13T15:30:28.895Z,100134.81
2023-01-13T15:32:58.601Z,100138.22
2023-01-13T15:35:29.348Z,100133.03
2023-01-13T15:37:57.840Z,100135.63
2023-01-13T15:40:27.287Z,100135.66
2023-01-13T15:43:12.241Z,100139.84
2023-01-13T15:45:57.009Z,100134.81
2023-01-13T15:48:26.255Z,100134.66
2023-01-13T15:50:55.461Z,100134.63
2023-01-13T15:53:32.627Z,100133.06
2023-01-13T15:56:09.629Z,100131.28
2023-01-13T15:58:42.090Z,100134.72
2023-01-13T16:01:10.940Z,100132.13
2023-01-13T16:03:40.685Z,100132.19
2023-01-13T16:06:16.241Z,100128.69
2023-01-13T16:08:43.753Z,100139.09
2023-01-13T16:11:14.878Z,100137.38
2023-01-13T16:13:47.722Z,100138.22
2023-01-13T16:16:19.778Z,100132.22
2023-01-13T16:21:19.152Z,100156.28
2023-01-13T16:23:46.928Z,100155.41
2023-01-13T16:26:20.184Z,100163.13
2023-01-13T16:28:47.697Z,100177.69
2023-01-13T16:31:29.138Z,100169.16
2023-01-13T16:33:57.672Z,100189.75
2023-01-13T16:36:26.770Z,100178.59
2023-01-13T16:38:54.557Z,100167.44
2023-01-13T16:41:24.784Z,100179.47
2023-01-13T16:43:52.497Z,100188.06
2023-01-13T16:46:23.073Z,100181.16
2023-01-13T16:48:52.909Z,100193.19
2023-01-13T16:51:21.074Z,100194.94
2023-01-13T16:53:55.630Z,100190.59
2023-01-13T16:56:28.165Z,100205.03
2023-01-13T16:58:57.550Z,100199.22
2023-01-13T17:01:29.545Z,100203.50
2023-01-13T17:03:58.696Z,100218.13
2023-01-13T17:06:30.439Z,100201.78
2023-01-13T17:09:03.499Z,100224.13
2023-01-13T17:11:31.207Z,100222.41
2023-01-13T17:13:58.674Z,100233.59
2023-01-13T17:16:26.631Z,100233.56
2023-01-13T17:18:54.531Z,100223.25
2023-01-13T17:21:22.028Z,100236.16
2023-01-13T17:23:49.613Z,100234.44
2023-01-13T17:26:37.276Z,100244.69
2023-01-13T17:29:06.740Z,100247.31
2023-01-13T17:31:35.627Z,100254.00
2023-01-13T17:34:03.654Z,100249.66
2023-01-13T17:36:31.208Z,100258.34
2023-01-13T17:38:59.249Z,100267.06
2023-01-13T17:41:27.243Z,100268.66
2023-01-13T17:43:56.039Z,100275.53
2023-01-13T17:46:23.899Z,100278.94
2023-01-13T17:48:52.660Z,100277.38
2023-01-13T17:51:25.083Z,100275.63
2023-01-13T17:53:55.624Z,100287.69
2023-01-13T17:56:25.147Z,100280.63
2023-01-13T17:58:52.605Z,100276.44
2023-01-13T18:01:22.984Z,100281.63
2023-01-13T18:03:50.903Z,100279.78
2023-01-13T18:06:20.236Z,100271.38
2023-01-13T18:08:48.575Z,100275.63
2023-01-13T18:11:18.711Z,100284.22
2023-01-13T18:13:46.616Z,100279.72
2023-01-13T18:16:16.867Z,100284.09
2023-01-13T18:18:47.784Z,100287.03
2023-01-13T18:21:37.492Z,100289.00
2023-01-13T18:24:23.458Z,100291.88
2023-01-13T18:27:08.264Z,100285.09
2023-01-13T18:29:35.729Z,100291.97
2023-01-13T18:32:03.168Z,100288.56
2023-01-13T18:34:31.948Z,100308.97
2023-01-13T18:36:59.380Z,100296.00
2023-01-13T18:39:26.965Z,100306.25
2023-01-13T18:42:12.003Z,100307.91
2023-01-13T18:44:39.492Z,100313.16
2023-01-13T18:47:06.942Z,100309.94
2023-01-13T18:49:35.945Z,100306.53
2023-01-13T18:52:03.456Z,100316.84
2023-01-13T18:54:30.898Z,100316.09
2023-01-13T18:56:58.320Z,100320.13
2023-01-13T18:59:26.133Z,100327.09
2023-01-13T19:01:53.816Z,100328.03
2023-01-13T19:04:21.621Z,100339.19
2023-01-13T19:06:51.723Z,100337.41
2023-01-13T19:09:24.363Z,100336.50
2023-01-13T19:11:52.304Z,100334.06
2023-01-13T19:14:34.822Z,100342.38
2023-01-13T19:17:02.971Z,100344.31
2023-01-13T19:19:31.292Z,100332.31
2023-01-13T19:22:00.113Z,100349.25
2023-01-13T19:24:27.533Z,100350.06
2023-01-13T19:26:55.237Z,100347.53
2023-01-13T19:29:22.895Z,100354.19
2023-01-13T19:31:50.383Z,100360.00
2023-01-13T19:34:18.318Z,100359.44
2023-01-13T19:36:45.780Z,100361.50
2023-01-13T19:39:14.968Z,100368.97
2023-01-13T19:42:00.015Z,100374.13
2023-01-13T19:44:44.862Z,100365.88
2023-01-13T19:47:12.292Z,100370.72
2023-01-13T19:49:39.757Z,100375.16
2023-01-13T19:52:07.200Z,100381.81
2023-01-13T19:54:36.200Z,100378.66
2023-01-13T19:57:03.723Z,100384.72
2023-01-13T19:59:32.496Z,100383.06
2023-01-13T20:02:01.490Z,100392.44
2023-01-13T20:04:38.241Z,100389.03
2023-01-13T20:07:06.540Z,100406.59
2023-01-13T20:09:34.545Z,100414.38
2023-01-13T20:12:05.694Z,100409.19
2023-01-13T20:14:33.080Z,100409.44
2023-01-13T20:17:00.579Z,100413.78
2023-01-13T20:19:28.165Z,100408.78
2023-01-13T20:21:55.605Z,100415.94
2023-01-13T20:24:24.688Z,100422.22
2023-01-13T20:26:52.123Z,100423.78
2023-01-13T20:29:20.926Z,100425.97
2023-01-13T20:31:49.595Z,100430.19
2023-01-13T20:34:19.101Z,100432.44
2023-01-13T20:36:48.133Z,100431.56
2023-01-13T20:39:17.979Z,100434.41
2023-01-13T20:42:03.387Z,100424.84
2023-01-13T20:44:32.404Z,100428.19
2023-01-13T20:46:59.981Z,100434.63
2023-01-13T20:49:28.527Z,100433.13
2023-01-13T20:51:56.349Z,100433.31
2023-01-13T20:54:24.151Z,100444.88
2023-01-13T20:56:51.618Z,100427.28
2023-01-13T20:59:19.249Z,100432.00
2023-01-13T21:01:48.052Z,100451.84
2023-01-13T21:04:15.486Z,100452.59
2023-01-13T21:06:43.226Z,100442.63
2023-01-13T21:09:10.740Z,100451.09
2023-01-13T21:11:55.679Z,100455.91
2023-01-13T21:14:42.412Z,100457.00
2023-01-13T21:17:38.533Z,100458.69
2023-01-13T21:20:14.131Z,100466.13
2023-01-13T21:22:45.550Z,100457.41
2023-01-13T21:25:13.876Z,100465.38
2023-01-13T21:27:43.854Z,100464.78
2023-01-13T21:30:14.764Z,100463.16
2023-01-13T21:32:44.629Z,100470.88
2023-01-13T21:35:12.900Z,100482.53
2023-01-13T21:37:43.058Z,100488.06
2023-01-13T21:40:13.307Z,100486.25
2023-01-13T21:42:58.373Z,100484.56
2023-01-13T21:45:43.015Z,100492.34
2023-01-13T21:48:11.780Z,100483.16
2023-01-13T21:50:39.683Z,100479.25
2023-01-13T21:53:08.399Z,100498.38
2023-01-13T21:55:37.513Z,100489.09
2023-01-13T21:58:10.131Z,100498.94
2023-01-13T22:00:38.253Z,100500.28
2023-01-13T22:03:07.727Z,100489.22
2023-01-13T22:05:37.304Z,100494.66
2023-01-13T22:08:05.745Z,100493.63
2023-01-13T22:10:34.308Z,100497.53
2023-01-13T22:13:24.189Z,100493.41
2023-01-13T22:15:51.691Z,100507.31
2023-01-13T22:18:19.155Z,100510.72
2023-01-13T22:20:49.175Z,100513.75
2023-01-13T22:23:16.996Z,100510.13
2023-01-13T22:25:44.425Z,100513.56
2023-01-13T22:28:13.815Z,100516.75
2023-01-13T22:30:41.464Z,100518.09
2023-01-13T22:33:09.665Z,100520.38
2023-01-13T22:35:38.425Z,100529.50
2023-01-13T22:38:07.178Z,100536.41
2023-01-13T22:40:34.623Z,100535.25
2023-01-13T22:43:02.040Z,100535.00
2023-01-13T22:45:29.455Z,100547.78
2023-01-13T22:47:56.876Z,100554.13
2023-01-13T22:50:24.808Z,100544.63
2023-01-13T22:52:52.298Z,100553.56
2023-01-13T22:55:21.111Z,100549.75
2023-01-13T22:57:48.632Z,100555.38
2023-01-13T23:00:19.144Z,100566.88
2023-01-13T23:02:46.876Z,100566.44
2023-01-13T23:05:14.670Z,100569.53
2023-01-13T23:07:42.278Z,100573.72
2023-01-13T23:10:10.697Z,100569.75
2023-01-13T23:12:39.493Z,100573.19
2023-01-13T23:15:07.750Z,100579.06
2023-01-13T23:17:35.151Z,100573.84
2023-01-13T23:20:03.019Z,100577.84
2023-01-13T23:22:30.489Z,100581.81
2023-01-13T23:24:57.880Z,100576.47
2023-01-13T23:27:25.340Z,100575.94
2023-01-13T23:29:55.989Z,100580.44
2023-01-13T23:32:23.568Z,100574.06
2023-01-13T23:34:50.970Z,100567.94
2023-01-13T23:37:18.605Z,100584.34
2023-01-13T23:39:46.124Z,100584.75
2023-01-13T23:42:13.680Z,100600.19
2023-01-13T23:44:41.110Z,100586.94
2023-01-13T23:47:09.993Z,100581.84
2023-01-13T23:49:37.366Z,100587.88
2023-01-13T23:52:04.817Z,100582.56
2023-01-13T23:54:32.208Z,100602.53
2023-01-13T23:57:00.531Z,100591.78
2023-01-13T23:59:28.027Z,100603.63
